This is the latest recevied weather packets stored in our database for station/object SP1WSR-10. If no packets are shown the sender has not sent any weather packets the latest 10 day(s).
| Time | Temp. | Humidity | Pressure | Rain* | Wind** | Luminosity | Snow |
|---|---|---|---|---|---|---|---|
| 1787849712 | 29.44° C | 43% | 1019.7 hPa | - | - | - | - |
| 1787849112 | 30° C | 41% | 1019.6 hPa | - | - | - | - |
| 1787848512 | 30.56° C | 41% | 1019.8 hPa | - | - | - | - |
| 1787847911 | 31.67° C | 39% | 1019.9 hPa | - | - | - | - |
| 1787847311 | 32.78° C | 38% | 1020.1 hPa | - | - | - | - |
| 1787846711 | 32.22° C | 39% | 1020.2 hPa | - | - | - | - |
| 1787846111 | 32.78° C | 38% | 1020.2 hPa | - | - | - | - |
| 1787845511 | 30° C | 44% | 1020.4 hPa | - | - | - | - |
| 1787844910 | 27.78° C | 49% | 1020.2 hPa | - | - | - | - |
| 1787844310 | 27.78° C | 50% | 1020.2 hPa | - | - | - | - |
| 1787843710 | 27.22° C | 51% | 1020.3 hPa | - | - | - | - |
| 1787843110 | 27.22° C | 52% | 1020.4 hPa | - | - | - | - |
| 1787842510 | 27.22° C | 52% | 1020.4 hPa | - | - | - | - |
| 1787841910 | 27.22° C | 54% | 1020.1 hPa | - | - | - | - |
| 1787841310 | 27.22° C | 53% | 1020.4 hPa | - | - | - | - |
| 1787840710 | 27.22° C | 50% | 1020.3 hPa | - | - | - | - |
| 1787840109 | 26.67° C | 49% | 1020.2 hPa | - | - | - | - |
| 1787839509 | 26.67° C | 49% | 1020.1 hPa | - | - | - | - |
| 1787838909 | 26.67° C | 49% | 1020.3 hPa | - | - | - | - |
| 1787838309 | 26.67° C | 49% | 1020.4 hPa | - | - | - | - |
| 1787837709 | 26.67° C | 49% | 1020.4 hPa | - | - | - | - |
| 1787837109 | 26.67° C | 49% | 1020.5 hPa | - | - | - | - |
| 1787836508 | 26.67° C | 50% | 1020.4 hPa | - | - | - | - |
| 1787835908 | 26.67° C | 50% | 1020.6 hPa | - | - | - | - |
| 1787835308 | 26.67° C | 50% | 1020.7 hPa | - | - | - | - |
* Rain since midnight (hover to see other rain measurements)
** Current wind speed in m/s (hover to see current wind gust speed)